Valhermoso Springs, Alabama
Current Conditions -  °F | °C
As of 11:53 PM on Tuesday 21 Oct 2014 (Local Time) from KHSV Reporting Station
Clear Clear  
Wind Chill: 58°   Ceiling: Unl
Heat Index: 58°   Visibility: 10mi
Dew Point: 46°   Wind: 9mph
Humidity: 65%   Direction: 30°NNE
Pressure: 30.08"   Gusts: NA
Location:  34.5°N, 86.69°W
Report Text: KHSV 220453Z 03008KT 10SM CLR 14/08 A3008 RMK AO2 SLP182 LAST T01440078
Loading
Personal Weather Stations






























Interactive Weather Map
Tropical Storm Tracking
New forecast layout! Learn more

10-Day Weather Forecast

Advertisements
Track Severe Weather on mobile